sensor_id;sensor_type;location;lat;lon;timestamp;pressure;altitude;pressure_sealevel;temperature;humidity
59987;BME280;46181;51.498;5.392;2023-05-03T00:03:32;102781.3;;;11.1;48.17383
59987;BME280;46181;51.498;5.392;2023-05-03T00:08:02;102776.4;;;11.07;48.29395
59987;BME280;46181;51.498;5.392;2023-05-03T00:12:32;102780.7;;;11.03;48.38184
59987;BME280;46181;51.498;5.392;2023-05-03T00:17:02;102783.8;;;10.99;48.50098
59987;BME280;46181;51.498;5.392;2023-05-03T00:21:32;102783.4;;;10.95;48.59766
59987;BME280;46181;51.498;5.392;2023-05-03T00:26:04;102780.1;;;10.86;48.79102
59987;BME280;46181;51.498;5.392;2023-05-03T00:30:32;102777.2;;;10.83;48.99121
59987;BME280;46181;51.498;5.392;2023-05-03T00:35:05;102778.7;;;10.76;49.16406
59987;BME280;46181;51.498;5.392;2023-05-03T00:39:32;102781.8;;;10.76;49.21973
59987;BME280;46181;51.498;5.392;2023-05-03T00:44:02;102780.9;;;10.72;49.31738
59987;BME280;46181;51.498;5.392;2023-05-03T00:48:33;102783.6;;;10.67;49.4248
59987;BME280;46181;51.498;5.392;2023-05-03T00:53:02;102781.1;;;10.64;49.45508
59987;BME280;46181;51.498;5.392;2023-05-03T00:57:33;102778.3;;;10.59;49.52734
59987;BME280;46181;51.498;5.392;2023-05-03T01:02:02;102773.6;;;10.57;49.60449
59987;BME280;46181;51.498;5.392;2023-05-03T01:06:43;102769.9;;;10.48;49.70703
59987;BME280;46181;51.498;5.392;2023-05-03T01:11:07;102766.6;;;10.45;49.6709
59987;BME280;46181;51.498;5.392;2023-05-03T01:15:43;102775.6;;;10.41;49.79004
59987;BME280;46181;51.498;5.392;2023-05-03T01:20:04;102776.5;;;10.39;49.92285
59987;BME280;46181;51.498;5.392;2023-05-03T01:24:34;102779;;;10.35;49.94043
59987;BME280;46181;51.498;5.392;2023-05-03T01:29:03;102781.9;;;10.36;50.17871
59987;BME280;46181;51.498;5.392;2023-05-03T01:33:39;102782;;;10.27;50.29199
59987;BME280;46181;51.498;5.392;2023-05-03T01:38:03;102780.5;;;10.27;50.29199
59987;BME280;46181;51.498;5.392;2023-05-03T01:42:33;102783.5;;;10.21;50.42188
59987;BME280;46181;51.498;5.392;2023-05-03T01:47:05;102792.4;;;10.18;50.53027
59987;BME280;46181;51.498;5.392;2023-05-03T01:51:32;102786;;;10.15;50.54883
59987;BME280;46181;51.498;5.392;2023-05-03T01:56:03;102785.5;;;10.13;50.63672
59987;BME280;46181;51.498;5.392;2023-05-03T02:00:33;102787.3;;;10.06;50.73047
59987;BME280;46181;51.498;5.392;2023-05-03T02:05:03;102783.3;;;10.02;50.80371
59987;BME280;46181;51.498;5.392;2023-05-03T02:09:33;102785.4;;;9.96;50.95508
59987;BME280;46181;51.498;5.392;2023-05-03T02:14:02;102784.7;;;9.93;51.08691
59987;BME280;46181;51.498;5.392;2023-05-03T02:18:32;102781.1;;;9.91;51.16309
59987;BME280;46181;51.498;5.392;2023-05-03T02:23:02;102777.6;;;9.88;51.30762
59987;BME280;46181;51.498;5.392;2023-05-03T02:27:32;102768.9;;;9.83;51.36816
59987;BME280;46181;51.498;5.392;2023-05-03T02:32:03;102764.4;;;9.78;51.37305
59987;BME280;46181;51.498;5.392;2023-05-03T02:36:32;102753.6;;;9.74;51.50391
59987;BME280;46181;51.498;5.392;2023-05-03T02:41:02;102746.1;;;9.69;51.52051
59987;BME280;46181;51.498;5.392;2023-05-03T02:45:32;102742.8;;;9.63;51.62598
59987;BME280;46181;51.498;5.392;2023-05-03T02:50:03;102739.5;;;9.58;51.66504
59987;BME280;46181;51.498;5.392;2023-05-03T02:54:32;102731.3;;;9.51;51.8252
59987;BME280;46181;51.498;5.392;2023-05-03T02:59:03;102720.1;;;9.45;51.98633
59987;BME280;46181;51.498;5.392;2023-05-03T03:03:32;102725.9;;;9.38;52.03418
59987;BME280;46181;51.498;5.392;2023-05-03T03:08:03;102732;;;9.36;52.09961
59987;BME280;46181;51.498;5.392;2023-05-03T03:12:33;102745.2;;;9.32;52.18457
59987;BME280;46181;51.498;5.392;2023-05-03T03:17:05;102742.6;;;9.29;52.22656
59987;BME280;46181;51.498;5.392;2023-05-03T03:21:32;102738.1;;;9.28;52.23535
59987;BME280;46181;51.498;5.392;2023-05-03T03:26:03;102741.5;;;9.26;52.30078
59987;BME280;46181;51.498;5.392;2023-05-03T03:30:32;102756.9;;;9.24;52.34375
59987;BME280;46181;51.498;5.392;2023-05-03T03:35:03;102759;;;9.22;52.37402
59987;BME280;46181;51.498;5.392;2023-05-03T03:39:32;102752.1;;;9.17;52.4248
59987;BME280;46181;51.498;5.392;2023-05-03T03:44:02;102751.4;;;9.14;52.48926
59987;BME280;46181;51.498;5.392;2023-05-03T03:48:32;102741.1;;;9.1;52.54102
59987;BME280;46181;51.498;5.392;2023-05-03T03:53:02;102738.3;;;9.07;52.59277
59987;BME280;46181;51.498;5.392;2023-05-03T03:57:32;102742.9;;;9.04;52.64453
59987;BME280;46181;51.498;5.392;2023-05-03T04:02:02;102753.8;;;9.01;52.93457
59987;BME280;46181;51.498;5.392;2023-05-03T04:06:32;102753.7;;;8.97;52.91797
59987;BME280;46181;51.498;5.392;2023-05-03T04:11:03;102752.5;;;8.94;52.90234
59987;BME280;46181;51.498;5.392;2023-05-03T04:15:32;102763;;;8.92;52.97949
59987;BME280;46181;51.498;5.392;2023-05-03T04:20:04;102756.3;;;8.89;53.09863
59987;BME280;46181;51.498;5.392;2023-05-03T04:24:32;102762.1;;;8.88;53.16504
59987;BME280;46181;51.498;5.392;2023-05-03T04:29:02;102759;;;8.89;53.15527
59987;BME280;46181;51.498;5.392;2023-05-03T04:33:33;102764.2;;;8.92;53.21582
59987;BME280;46181;51.498;5.392;2023-05-03T04:38:02;102771.5;;;8.98;53.14355
59987;BME280;46181;51.498;5.392;2023-05-03T04:42:33;102780.4;;;9;53.22559
59987;BME280;46181;51.498;5.392;2023-05-03T04:47:03;102793.3;;;9.09;53.31445
59987;BME280;46181;51.498;5.392;2023-05-03T04:51:32;102805.5;;;9.17;53.30273
59987;BME280;46181;51.498;5.392;2023-05-03T04:56:03;102810.9;;;9.3;53.30566
59987;BME280;46181;51.498;5.392;2023-05-03T05:00:32;102823.7;;;9.48;53.29395
59987;BME280;46181;51.498;5.392;2023-05-03T05:05:03;102829.8;;;10.18;53.52734
59987;BME280;46181;51.498;5.392;2023-05-03T05:09:33;102828.9;;;10.98;52.2041
59987;BME280;46181;51.498;5.392;2023-05-03T05:14:02;102825.5;;;11.64;50.74512
59987;BME280;46181;51.498;5.392;2023-05-03T05:18:32;102822.1;;;12.07;49.70898
59987;BME280;46181;51.498;5.392;2023-05-03T05:23:03;102824.6;;;12.1;48.52246
59987;BME280;46181;51.498;5.392;2023-05-03T05:27:33;102820;;;11.81;49.06641
59987;BME280;46181;51.498;5.392;2023-05-03T05:32:03;102821.6;;;12.35;49.9209
59987;BME280;46181;51.498;5.392;2023-05-03T05:36:33;102820;;;13.2;48.64453
59987;BME280;46181;51.498;5.392;2023-05-03T05:41:03;102821.3;;;13.6;46.75586
59987;BME280;46181;51.498;5.392;2023-05-03T05:45:33;102820.8;;;13.13;46.44434
59987;BME280;46181;51.498;5.392;2023-05-03T05:50:03;102816.9;;;12.76;46.2002
59987;BME280;46181;51.498;5.392;2023-05-03T05:54:33;102829.3;;;12.48;46.66895
59987;BME280;46181;51.498;5.392;2023-05-03T05:59:04;102833.9;;;12.33;46.9502
59987;BME280;46181;51.498;5.392;2023-05-03T06:03:33;102832.5;;;12.42;47.37793
59987;BME280;46181;51.498;5.392;2023-05-03T06:08:03;102830.7;;;12.48;47.0791
59987;BME280;46181;51.498;5.392;2023-05-03T06:12:33;102835.3;;;12.61;47.02539
59987;BME280;46181;51.498;5.392;2023-05-03T06:17:03;102827;;;12.56;46.71191
59987;BME280;46181;51.498;5.392;2023-05-03T06:21:33;102821.8;;;12.68;46.6123
59987;BME280;46181;51.498;5.392;2023-05-03T06:26:03;102814.5;;;12.75;46.5625
59987;BME280;46181;51.498;5.392;2023-05-03T06:30:33;102821;;;12.86;46.54004
59987;BME280;46181;51.498;5.392;2023-05-03T06:35:03;102824.4;;;13;46.31641
59987;BME280;46181;51.498;5.392;2023-05-03T06:39:33;102821.2;;;13.14;45.92188
59987;BME280;46181;51.498;5.392;2023-05-03T06:44:03;102815.4;;;13.23;45.51074
59987;BME280;46181;51.498;5.392;2023-05-03T06:48:33;102811.8;;;13.34;45.19238
59987;BME280;46181;51.498;5.392;2023-05-03T06:53:03;102801.9;;;13.48;45.01367
59987;BME280;46181;51.498;5.392;2023-05-03T06:57:33;102796.3;;;13.67;44.77246
59987;BME280;46181;51.498;5.392;2023-05-03T07:02:03;102792.5;;;13.85;44.67676
59987;BME280;46181;51.498;5.392;2023-05-03T07:06:33;102801.7;;;14.08;44.00488
59987;BME280;46181;51.498;5.392;2023-05-03T07:11:03;102807.1;;;14.19;43.68555
59987;BME280;46181;51.498;5.392;2023-05-03T07:15:33;102816.2;;;14.29;43.58105
59987;BME280;46181;51.498;5.392;2023-05-03T07:20:03;102799.9;;;14.51;43.35156
59987;BME280;46181;51.498;5.392;2023-05-03T07:24:33;102802.3;;;14.71;42.58398
59987;BME280;46181;51.498;5.392;2023-05-03T07:29:03;102808.6;;;14.79;42.13574
59987;BME280;46181;51.498;5.392;2023-05-03T07:33:33;102808.1;;;14.83;42.09375
59987;BME280;46181;51.498;5.392;2023-05-03T07:38:03;102789;;;14.98;42.03809
59987;BME280;46181;51.498;5.392;2023-05-03T07:42:33;102784.5;;;15.23;41.45703
59987;BME280;46181;51.498;5.392;2023-05-03T07:47:04;102784.8;;;15.39;40.92188
59987;BME280;46181;51.498;5.392;2023-05-03T07:51:33;102783.2;;;15.47;40.30078
59987;BME280;46181;51.498;5.392;2023-05-03T07:56:05;102776.2;;;15.52;40.07617
59987;BME280;46181;51.498;5.392;2023-05-03T08:00:33;102767.5;;;15.55;39.39258
59987;BME280;46181;51.498;5.392;2023-05-03T08:05:03;102760.6;;;15.55;39.43848
59987;BME280;46181;51.498;5.392;2023-05-03T08:09:33;102756.2;;;15.73;39.47754
59987;BME280;46181;51.498;5.392;2023-05-03T08:14:03;102747.9;;;15.96;38.92578
59987;BME280;46181;51.498;5.392;2023-05-03T08:18:33;102741;;;16.05;38.66895
59987;BME280;46181;51.498;5.392;2023-05-03T08:23:03;102741.1;;;16.07;38.72754
59987;BME280;46181;51.498;5.392;2023-05-03T08:27:33;102742.1;;;16.27;38.34473
59987;BME280;46181;51.498;5.392;2023-05-03T08:32:03;102741.1;;;16.48;37.83496
59987;BME280;46181;51.498;5.392;2023-05-03T08:36:33;102740.1;;;16.57;37.13086
59987;BME280;46181;51.498;5.392;2023-05-03T08:41:07;102734.4;;;16.6;37.15625
59987;BME280;46181;51.498;5.392;2023-05-03T08:45:33;102731.3;;;16.71;36.78613
59987;BME280;46181;51.498;5.392;2023-05-03T08:50:03;102724.9;;;16.71;36.02832
59987;BME280;46181;51.498;5.392;2023-05-03T08:54:33;102733.2;;;16.91;35.90625
59987;BME280;46181;51.498;5.392;2023-05-03T08:59:03;102749.8;;;17;35.62598
59987;BME280;46181;51.498;5.392;2023-05-03T09:03:33;102748.6;;;17.08;35.52832
59987;BME280;46181;51.498;5.392;2023-05-03T09:08:12;102738;;;16.97;35.42773
59987;BME280;46181;51.498;5.392;2023-05-03T09:12:44;102746.9;;;17.06;35.67676
59987;BME280;46181;51.498;5.392;2023-05-03T09:17:12;102740.2;;;17.4;35.25488
59987;BME280;46181;51.498;5.392;2023-05-03T09:21:33;102735.8;;;17.72;34.85449
59987;BME280;46181;51.498;5.392;2023-05-03T09:26:03;102730.6;;;17.84;34.67969
59987;BME280;46181;51.498;5.392;2023-05-03T09:30:33;102739;;;18.03;34.06055
59987;BME280;46181;51.498;5.392;2023-05-03T09:35:16;102734.4;;;18.01;33.8291
59987;BME280;46181;51.498;5.392;2023-05-03T09:39:33;102725;;;18.3;34
59987;BME280;46181;51.498;5.392;2023-05-03T09:44:03;102727.1;;;18.34;33.53027
59987;BME280;46181;51.498;5.392;2023-05-03T09:48:33;102726.5;;;18.44;33.50293
59987;BME280;46181;51.498;5.392;2023-05-03T09:53:06;102730.4;;;18.53;33.16406
59987;BME280;46181;51.498;5.392;2023-05-03T09:57:33;102720.2;;;18.48;32.59375
59987;BME280;46181;51.498;5.392;2023-05-03T10:02:04;102714.8;;;18.43;32.86719
59987;BME280;46181;51.498;5.392;2023-05-03T10:06:40;102715.2;;;18.43;32.54395
59987;BME280;46181;51.498;5.392;2023-05-03T10:11:03;102713.5;;;18.53;32.60938
59987;BME280;46181;51.498;5.392;2023-05-03T10:15:34;102701.5;;;18.59;32.54395
59987;BME280;46181;51.498;5.392;2023-05-03T10:20:08;102696.4;;;18.91;32.08203
59987;BME280;46181;51.498;5.392;2023-05-03T10:24:33;102705.5;;;19.02;31.58105
59987;BME280;46181;51.498;5.392;2023-05-03T10:29:03;102713.9;;;19.1;31.56445
59987;BME280;46181;51.498;5.392;2023-05-03T10:33:42;102706.6;;;19.29;31.93652
59987;BME280;46181;51.498;5.392;2023-05-03T10:38:03;102711.9;;;19.53;31.29395
59987;BME280;46181;51.498;5.392;2023-05-03T10:42:33;102700.1;;;19.43;31.27441
59987;BME280;46181;51.498;5.392;2023-05-03T10:47:12;102694.3;;;19.39;30.73828
59987;BME280;46181;51.498;5.392;2023-05-03T10:51:42;102700.3;;;19.25;31.36621
59987;BME280;46181;51.498;5.392;2023-05-03T10:56:16;102696.4;;;19.25;31.43652
59987;BME280;46181;51.498;5.392;2023-05-03T11:00:37;102700.5;;;19.56;31.12207
59987;BME280;46181;51.498;5.392;2023-05-03T11:05:04;102699.4;;;19.63;30.94141
59987;BME280;46181;51.498;5.392;2023-05-03T11:09:38;102687.4;;;19.56;31.08691
59987;BME280;46181;51.498;5.392;2023-05-03T11:14:03;102687.5;;;19.58;30.71875
59987;BME280;46181;51.498;5.392;2023-05-03T11:18:33;102681.8;;;19.54;31.30566
59987;BME280;46181;51.498;5.392;2023-05-03T11:23:03;102674.6;;;19.66;31.36035
59987;BME280;46181;51.498;5.392;2023-05-03T11:27:35;102665.2;;;19.64;31.01172
59987;BME280;46181;51.498;5.392;2023-05-03T11:32:03;102659.1;;;19.75;30.97266
59987;BME280;46181;51.498;5.392;2023-05-03T11:36:33;102659.9;;;20.04;30.67969
59987;BME280;46181;51.498;5.392;2023-05-03T11:41:08;102656.5;;;20.09;30.77734
59987;BME280;46181;51.498;5.392;2023-05-03T11:45:37;102655.6;;;20.21;30.37793
59987;BME280;46181;51.498;5.392;2023-05-03T11:50:04;102640.6;;;20.09;30.21973
59987;BME280;46181;51.498;5.392;2023-05-03T11:54:33;102637.5;;;20;30.36426
59987;BME280;46181;51.498;5.392;2023-05-03T11:59:04;102634.2;;;20.15;30.57227
59987;BME280;46181;51.498;5.392;2023-05-03T12:03:34;102628.2;;;20.09;30.82324
59987;BME280;46181;51.498;5.392;2023-05-03T12:08:03;102624.7;;;20.3;30.70996
59987;BME280;46181;51.498;5.392;2023-05-03T12:12:33;102618.3;;;20.54;30.21582
59987;BME280;46181;51.498;5.392;2023-05-03T12:17:03;102611.7;;;20.4;30.03223
59987;BME280;46181;51.498;5.392;2023-05-03T12:26:03;102602.4;;;20.54;29.88965
59987;BME280;46181;51.498;5.392;2023-05-03T12:30:33;102598.7;;;20.59;29.64941
59987;BME280;46181;51.498;5.392;2023-05-03T12:35:03;102589.8;;;20.7;29.69141
59987;BME280;46181;51.498;5.392;2023-05-03T12:39:33;102590;;;20.94;29.0459
59987;BME280;46181;51.498;5.392;2023-05-03T12:44:03;102565.7;;;21.01;28.95605
59987;BME280;46181;51.498;5.392;2023-05-03T12:48:33;102551.6;;;20.98;28.66504
59987;BME280;46181;51.498;5.392;2023-05-03T12:53:03;102556.3;;;20.96;28.53516
59987;BME280;46181;51.498;5.392;2023-05-03T12:57:33;102546.6;;;20.98;28.81543
59987;BME280;46181;51.498;5.392;2023-05-03T13:02:03;102552.8;;;21.04;28.71484
59987;BME280;46181;51.498;5.392;2023-05-03T13:06:33;102541.7;;;20.98;28.69922
59987;BME280;46181;51.498;5.392;2023-05-03T13:11:03;102536;;;20.95;29.18652
59987;BME280;46181;51.498;5.392;2023-05-03T13:15:33;102543.4;;;21.06;29.18164
59987;BME280;46181;51.498;5.392;2023-05-03T13:20:03;102527.8;;;21.27;28.61328
59987;BME280;46181;51.498;5.392;2023-05-03T13:24:33;102523.8;;;21.37;28.42188
59987;BME280;46181;51.498;5.392;2023-05-03T13:29:03;102517.4;;;21.25;28.63574
59987;BME280;46181;51.498;5.392;2023-05-03T13:33:33;102507.6;;;21.37;28.70117
59987;BME280;46181;51.498;5.392;2023-05-03T13:38:04;102506.6;;;21.5;28.2666
59987;BME280;46181;51.498;5.392;2023-05-03T13:42:33;102494.8;;;21.46;28.41602
59987;BME280;46181;51.498;5.392;2023-05-03T13:47:03;102497;;;21.43;28.54199
59987;BME280;46181;51.498;5.392;2023-05-03T13:51:33;102496.1;;;21.56;28.3877
59987;BME280;46181;51.498;5.392;2023-05-03T13:56:04;102491.8;;;21.57;28.16699
59987;BME280;46181;51.498;5.392;2023-05-03T14:00:33;102482.7;;;21.47;27.8584
59987;BME280;46181;51.498;5.392;2023-05-03T14:05:03;102466.5;;;21.43;27.89063
59987;BME280;46181;51.498;5.392;2023-05-03T14:09:33;102463.5;;;21.43;27.79688
59987;BME280;46181;51.498;5.392;2023-05-03T14:14:03;102463.3;;;21.28;28.08984
59987;BME280;46181;51.498;5.392;2023-05-03T14:18:33;102449.4;;;21.16;28.1875
59987;BME280;46181;51.498;5.392;2023-05-03T14:23:03;102446.8;;;21.23;28.30762
59987;BME280;46181;51.498;5.392;2023-05-03T14:27:33;102441.4;;;21.24;28.05273
59987;BME280;46181;51.498;5.392;2023-05-03T14:32:03;102446.5;;;21.37;28.0498
59987;BME280;46181;51.498;5.392;2023-05-03T14:36:34;102437.2;;;21.42;27.91309
59987;BME280;46181;51.498;5.392;2023-05-03T14:41:03;102428.8;;;21.41;27.93555
59987;BME280;46181;51.498;5.392;2023-05-03T14:45:33;102438.2;;;21.54;27.52344
59987;BME280;46181;51.498;5.392;2023-05-03T14:50:03;102414;;;21.42;27.37695
59987;BME280;46181;51.498;5.392;2023-05-03T14:54:33;102418.8;;;21.42;27.28418
59987;BME280;46181;51.498;5.392;2023-05-03T14:59:03;102413.7;;;21.39;26.9209
59987;BME280;46181;51.498;5.392;2023-05-03T15:03:33;102410.6;;;21.37;27.1875
59987;BME280;46181;51.498;5.392;2023-05-03T15:08:03;102410.5;;;21.43;26.83105
59987;BME280;46181;51.498;5.392;2023-05-03T15:12:33;102398.8;;;21.59;26.47852
59987;BME280;46181;51.498;5.392;2023-05-03T15:17:03;102402.4;;;21.69;26.74121
59987;BME280;46181;51.498;5.392;2023-05-03T15:21:42;102391.6;;;21.75;26.5127
59987;BME280;46181;51.498;5.392;2023-05-03T15:26:03;102396.1;;;21.65;26.71582
59987;BME280;46181;51.498;5.392;2023-05-03T15:30:33;102381.7;;;21.76;26.43164
59987;BME280;46181;51.498;5.392;2023-05-03T15:35:03;102385.8;;;21.73;26.24316
59987;BME280;46181;51.498;5.392;2023-05-03T15:39:33;102388.5;;;21.71;26.4043
59987;BME280;46181;51.498;5.392;2023-05-03T15:44:03;102383.8;;;21.53;26.73242
59987;BME280;46181;51.498;5.392;2023-05-03T15:48:33;102389.9;;;21.55;26.9082
59987;BME280;46181;51.498;5.392;2023-05-03T15:53:03;102380.5;;;21.58;27.03809
59987;BME280;46181;51.498;5.392;2023-05-03T15:57:33;102379.3;;;21.53;26.90625
59987;BME280;46181;51.498;5.392;2023-05-03T16:02:03;102367;;;21.41;27.01563
59987;BME280;46181;51.498;5.392;2023-05-03T16:06:33;102368.5;;;21.38;26.93262
59987;BME280;46181;51.498;5.392;2023-05-03T16:11:03;102360.1;;;21.27;26.94824
59987;BME280;46181;51.498;5.392;2023-05-03T16:15:33;102366.9;;;21.09;27.54297
59987;BME280;46181;51.498;5.392;2023-05-03T16:20:04;102357.2;;;20.94;27.38281
59987;BME280;46181;51.498;5.392;2023-05-03T16:24:33;102356.4;;;20.76;27.49902
59987;BME280;46181;51.498;5.392;2023-05-03T16:29:03;102353.7;;;20.62;27.89746
59987;BME280;46181;51.498;5.392;2023-05-03T16:33:33;102355.2;;;20.51;27.94824
59987;BME280;46181;51.498;5.392;2023-05-03T16:38:03;102346.1;;;20.43;28.28125
59987;BME280;46181;51.498;5.392;2023-05-03T16:42:33;102343.3;;;20.41;28.41895
59987;BME280;46181;51.498;5.392;2023-05-03T16:47:03;102351.1;;;20.39;28.40527
59987;BME280;46181;51.498;5.392;2023-05-03T16:51:33;102334.4;;;20.33;28.59863
59987;BME280;46181;51.498;5.392;2023-05-03T16:56:03;102350.4;;;20.27;28.5957
59987;BME280;46181;51.498;5.392;2023-05-03T17:00:33;102332.5;;;20.21;28.55566
59987;BME280;46181;51.498;5.392;2023-05-03T17:05:03;102329.8;;;20.16;28.56543
59987;BME280;46181;51.498;5.392;2023-05-03T17:09:33;102323.4;;;20.07;28.86133
59987;BME280;46181;51.498;5.392;2023-05-03T17:14:03;102328.6;;;20.01;29.05469
59987;BME280;46181;51.498;5.392;2023-05-03T17:18:33;102318.1;;;19.98;29.28418
59987;BME280;46181;51.498;5.392;2023-05-03T17:23:03;102319;;;19.94;29.46777
59987;BME280;46181;51.498;5.392;2023-05-03T17:27:33;102318.5;;;19.91;29.53516
59987;BME280;46181;51.498;5.392;2023-05-03T17:32:03;102321.1;;;19.82;29.33105
59987;BME280;46181;51.498;5.392;2023-05-03T17:36:33;102316.8;;;19.8;29.26074
59987;BME280;46181;51.498;5.392;2023-05-03T17:41:06;102317.9;;;19.75;29.29199
59987;BME280;46181;51.498;5.392;2023-05-03T17:45:33;102318.5;;;19.69;29.4502
59987;BME280;46181;51.498;5.392;2023-05-03T17:50:03;102309.1;;;19.66;29.77344
59987;BME280;46181;51.498;5.392;2023-05-03T17:54:35;102314.8;;;19.59;29.94238
59987;BME280;46181;51.498;5.392;2023-05-03T17:59:03;102310.2;;;19.54;30.18262
59987;BME280;46181;51.498;5.392;2023-05-03T18:03:33;102309.6;;;19.55;30.26367
59987;BME280;46181;51.498;5.392;2023-05-03T18:08:03;102304.6;;;19.55;30.37988
59987;BME280;46181;51.498;5.392;2023-05-03T18:12:33;102302.8;;;19.5;30.74707
59987;BME280;46181;51.498;5.392;2023-05-03T18:17:03;102299.9;;;19.47;30.70996
59987;BME280;46181;51.498;5.392;2023-05-03T18:21:33;102300.1;;;19.37;30.87793
59987;BME280;46181;51.498;5.392;2023-05-03T18:26:03;102300.6;;;19.27;31.08984
59987;BME280;46181;51.498;5.392;2023-05-03T18:30:33;102299.5;;;19.15;31.24316
59987;BME280;46181;51.498;5.392;2023-05-03T18:35:03;102305.6;;;19.06;31.41016
59987;BME280;46181;51.498;5.392;2023-05-03T18:39:33;102310.2;;;18.94;31.81836
59987;BME280;46181;51.498;5.392;2023-05-03T18:44:03;102310.7;;;18.84;32.05371
59987;BME280;46181;51.498;5.392;2023-05-03T18:48:33;102311.1;;;18.71;32.17188
59987;BME280;46181;51.498;5.392;2023-05-03T18:53:03;102312.2;;;18.6;32.44141
59987;BME280;46181;51.498;5.392;2023-05-03T18:57:33;102310.8;;;18.44;32.77637
59987;BME280;46181;51.498;5.392;2023-05-03T19:02:03;102313.6;;;18.31;33.04297
59987;BME280;46181;51.498;5.392;2023-05-03T19:06:33;102314.6;;;18.17;33.39063
59987;BME280;46181;51.498;5.392;2023-05-03T19:11:09;102314.9;;;18.05;33.54297
59987;BME280;46181;51.498;5.392;2023-05-03T19:15:33;102313.1;;;17.94;33.82324
59987;BME280;46181;51.498;5.392;2023-05-03T19:20:04;102306.7;;;17.83;34.10156
59987;BME280;46181;51.498;5.392;2023-05-03T19:24:33;102315.3;;;17.72;34.45117
59987;BME280;46181;51.498;5.392;2023-05-03T19:29:03;102311.1;;;17.61;34.58105
59987;BME280;46181;51.498;5.392;2023-05-03T19:33:33;102309.1;;;17.5;34.72168
59987;BME280;46181;51.498;5.392;2023-05-03T19:38:03;102307.1;;;17.41;34.89941
59987;BME280;46181;51.498;5.392;2023-05-03T19:42:33;102306.4;;;17.35;35.04492
59987;BME280;46181;51.498;5.392;2023-05-03T19:47:04;102311.7;;;17.26;35.25488
59987;BME280;46181;51.498;5.392;2023-05-03T19:51:33;102311.5;;;17.19;35.42383
59987;BME280;46181;51.498;5.392;2023-05-03T19:56:07;102315.2;;;17.09;35.74805
59987;BME280;46181;51.498;5.392;2023-05-03T20:00:34;102314.7;;;17.05;35.83691
59987;BME280;46181;51.498;5.392;2023-05-03T20:05:03;102318.5;;;16.97;35.95703
59987;BME280;46181;51.498;5.392;2023-05-03T20:09:33;102316.9;;;16.93;36.10352
59987;BME280;46181;51.498;5.392;2023-05-03T20:14:03;102304.7;;;16.86;36.28125
59987;BME280;46181;51.498;5.392;2023-05-03T20:18:33;102309.2;;;16.79;36.45898
59987;BME280;46181;51.498;5.392;2023-05-03T20:23:03;102313.9;;;16.75;36.55957
59987;BME280;46181;51.498;5.392;2023-05-03T20:27:33;102310.1;;;16.65;36.83887
59987;BME280;46181;51.498;5.392;2023-05-03T20:32:03;102312.9;;;16.59;36.91406
59987;BME280;46181;51.498;5.392;2023-05-03T20:36:33;102310.3;;;16.51;37.04492
59987;BME280;46181;51.498;5.392;2023-05-03T20:41:03;102304.9;;;16.46;37.16602
59987;BME280;46181;51.498;5.392;2023-05-03T20:45:33;102298.9;;;16.36;37.38867
59987;BME280;46181;51.498;5.392;2023-05-03T20:50:04;102299.1;;;16.3;37.62402
59987;BME280;46181;51.498;5.392;2023-05-03T20:54:34;102296.7;;;16.24;37.75684
59987;BME280;46181;51.498;5.392;2023-05-03T20:59:03;102290.2;;;16.19;37.96973
59987;BME280;46181;51.498;5.392;2023-05-03T21:03:34;102282.4;;;16.14;38.0918
59987;BME280;46181;51.498;5.392;2023-05-03T21:08:03;102278.8;;;16.07;38.33789
59987;BME280;46181;51.498;5.392;2023-05-03T21:12:33;102276;;;16.03;38.26563
59987;BME280;46181;51.498;5.392;2023-05-03T21:17:03;102275.1;;;15.96;38.47852
59987;BME280;46181;51.498;5.392;2023-05-03T21:21:33;102269.7;;;15.92;38.57715
59987;BME280;46181;51.498;5.392;2023-05-03T21:26:03;102272.7;;;15.86;38.79004
59987;BME280;46181;51.498;5.392;2023-05-03T21:30:33;102267.6;;;15.83;38.85742
59987;BME280;46181;51.498;5.392;2023-05-03T21:35:03;102271.9;;;15.77;39.02246
59987;BME280;46181;51.498;5.392;2023-05-03T21:39:33;102267.7;;;15.72;39.16699
59987;BME280;46181;51.498;5.392;2023-05-03T21:44:03;102260.9;;;15.7;39.29102
59987;BME280;46181;51.498;5.392;2023-05-03T21:48:33;102252;;;15.63;39.37598
59987;BME280;46181;51.498;5.392;2023-05-03T21:53:03;102249.7;;;15.6;39.52246
59987;BME280;46181;51.498;5.392;2023-05-03T21:57:33;102240.6;;;15.52;39.6416
59987;BME280;46181;51.498;5.392;2023-05-03T22:02:03;102234.6;;;15.47;39.85449
59987;BME280;46181;51.498;5.392;2023-05-03T22:06:34;102236.6;;;15.44;39.97852
59987;BME280;46181;51.498;5.392;2023-05-03T22:11:03;102245;;;15.39;40.05371
59987;BME280;46181;51.498;5.392;2023-05-03T22:15:33;102244.6;;;15.32;40.26465
59987;BME280;46181;51.498;5.392;2023-05-03T22:20:04;102237.4;;;15.29;40.44434
59987;BME280;46181;51.498;5.392;2023-05-03T22:24:33;102239.3;;;15.24;40.54297
59987;BME280;46181;51.498;5.392;2023-05-03T22:29:03;102238.7;;;15.18;40.69727
59987;BME280;46181;51.498;5.392;2023-05-03T22:33:33;102236.7;;;15.14;40.85352
59987;BME280;46181;51.498;5.392;2023-05-03T22:38:03;102232.1;;;15.08;40.95117
59987;BME280;46181;51.498;5.392;2023-05-03T22:42:33;102234.4;;;15;41.18359
59987;BME280;46181;51.498;5.392;2023-05-03T22:47:03;102232.5;;;14.94;41.40625
59987;BME280;46181;51.498;5.392;2023-05-03T22:51:33;102226.8;;;14.87;41.55859
59987;BME280;46181;51.498;5.392;2023-05-03T22:56:07;102229.8;;;14.79;41.67773
59987;BME280;46181;51.498;5.392;2023-05-03T23:00:33;102229.9;;;14.76;41.8584
59987;BME280;46181;51.498;5.392;2023-05-03T23:05:04;102225.1;;;14.72;42.02539
59987;BME280;46181;51.498;5.392;2023-05-03T23:09:33;102226.3;;;14.65;42.11035